Time;durP1;ratioP1;P1;durP2;ratioP2;P2;SDS_P1;SDS_P2;PMS_P1;PMS_P2;Temp;Humidity;BMP_temperature;BMP_pressure;BME280_temperature;BME280_humidity;BME280_pressure;Samples;Min_cycle;Max_cycle;Signal;HPM_P1;HPM_P2
2022/11/30 00:02:34;;;;;;;0.80;0.75;;;;;;;5.72;100.00;102773.34;10382004;28;20052;-79
2022/11/30 00:07:36;;;;;;;0.98;0.93;;;;;;;5.71;100.00;102767.31;10389011;28;20260;-79
2022/11/30 00:12:41;;;;;;;4.50;1.73;;;;;;;5.72;100.00;102745.22;10381254;28;20100;-79
2022/11/30 00:17:46;;;;;;;4.25;2.05;;;;;;;5.70;100.00;102742.50;10400536;28;20084;-80
2022/11/30 00:22:48;;;;;;;3.17;1.92;;;;;;;5.72;100.00;102725.63;10375190;28;20067;-79
2022/11/30 00:27:50;;;;;;;2.42;1.42;;;;;;;5.68;100.00;102718.50;10373562;28;20504;-80
2022/11/30 00:32:56;;;;;;;3.60;1.52;;;;;;;5.66;100.00;102716.63;10389356;28;20041;-79
2022/11/30 00:38:01;;;;;;;1.10;1.00;;;;;;;5.58;100.00;102713.47;10396830;28;20084;-79
2022/11/30 00:43:02;;;;;;;2.22;2.03;;;;;;;5.52;100.00;102705.34;10398340;28;20174;-79
2022/11/30 00:48:04;;;;;;;2.28;0.98;;;;;;;5.46;100.00;102702.31;10398605;28;20112;-79
2022/11/30 00:53:06;;;;;;;3.47;1.40;;;;;;;5.44;100.00;102708.97;10370553;28;20072;-80
2022/11/30 00:58:08;;;;;;;2.10;0.73;;;;;;;5.43;100.00;102699.53;10392687;28;20038;-80
2022/11/30 01:03:10;;;;;;;0.75;0.75;;;;;;;5.36;100.00;102706.72;10389325;28;20087;-81
2022/11/30 01:08:12;;;;;;;1.85;1.17;;;;;;;5.17;100.00;102709.53;10390704;28;20115;-80
2022/11/30 01:13:14;;;;;;;1.30;0.80;;;;;;;5.32;100.00;102717.50;10408567;28;20100;-80
2022/11/30 01:18:16;;;;;;;0.82;0.80;;;;;;;5.33;100.00;102721.81;10409053;28;20104;-80
2022/11/30 01:23:17;;;;;;;0.50;0.47;;;;;;;5.31;100.00;102718.28;10415082;28;20103;-80
2022/11/30 01:28:19;;;;;;;0.60;0.60;;;;;;;5.23;100.00;102724.47;10416076;28;20045;-80
2022/11/30 01:33:20;;;;;;;2.10;1.10;;;;;;;5.15;100.00;102733.19;10415537;28;20050;-80
2022/11/30 01:38:22;;;;;;;2.15;1.48;;;;;;;4.83;100.00;102713.69;10415357;28;20350;-80
2022/11/30 01:43:43;;;;;;;0.93;0.47;;;;;;;4.80;100.00;102721.13;10407828;28;20104;-80
2022/11/30 01:48:53;;;;;;;1.40;1.30;;;;;;;4.78;100.00;102732.88;10400701;28;20069;-81
2022/11/30 01:53:56;;;;;;;4.75;0.75;;;;;;;4.72;100.00;102739.28;10429017;28;20053;-79
2022/11/30 01:58:59;;;;;;;3.97;1.85;;;;;;;4.57;100.00;102738.94;10412780;28;20072;-80
2022/11/30 02:04:27;;;;;;;1.98;0.45;;;;;;;4.39;100.00;102748.56;10412551;28;20072;-79
2022/11/30 02:09:34;;;;;;;0.80;0.80;;;;;;;4.22;100.00;102744.66;10389588;28;20103;-80
2022/11/30 02:14:50;;;;;;;0.75;0.43;;;;;;;3.85;100.00;102745.81;10408523;28;20042;-80
2022/11/30 02:20:30;;;;;;;1.20;0.98;;;;;;;3.96;100.00;102748.50;10382620;28;20053;-80
2022/11/30 02:25:56;;;;;;;2.50;0.35;;;;;;;3.71;100.00;102762.53;10397725;28;20057;-80
2022/11/30 02:31:01;;;;;;;2.17;0.88;;;;;;;3.64;100.00;102763.66;10407792;28;20050;-80
2022/11/30 02:36:05;;;;;;;0.20;0.20;;;;;;;3.35;100.00;102751.91;10424475;28;20133;-80
2022/11/30 02:41:06;;;;;;;3.10;0.43;;;;;;;2.90;100.00;102755.75;10411388;28;20091;-80
2022/11/30 02:46:19;;;;;;;0.20;0.20;;;;;;;2.48;100.00;102741.94;10397018;28;20563;-80
2022/11/30 02:51:25;;;;;;;0.00;0.00;;;;;;;2.31;100.00;102754.78;10413538;28;20049;-80
2022/11/30 02:56:27;;;;;;;0.98;0.38;;;;;;;2.21;100.00;102753.09;10427352;28;20501;-79
2022/11/30 03:01:29;;;;;;;0.25;0.25;;;;;;;1.95;100.00;102764.31;10419829;28;20053;-79
2022/11/30 03:06:30;;;;;;;0.13;0.13;;;;;;;1.92;100.00;102755.53;10413914;28;20157;-79
2022/11/30 03:11:32;;;;;;;0.00;0.00;;;;;;;1.93;100.00;102770.94;10413337;28;20119;-80
2022/11/30 03:16:35;;;;;;;0.08;0.00;;;;;;;2.22;100.00;102781.19;10409995;28;20103;-79
2022/11/30 03:21:37;;;;;;;0.20;0.20;;;;;;;2.43;100.00;102795.69;10412338;28;20505;-79
2022/11/30 03:26:39;;;;;;;0.10;0.10;;;;;;;2.65;100.00;102804.47;10413042;28;20053;-79
2022/11/30 03:31:40;;;;;;;0.00;0.00;;;;;;;2.85;100.00;102808.81;10398908;28;20056;-79
2022/11/30 03:36:42;;;;;;;0.22;0.22;;;;;;;3.01;100.00;102817.78;10412491;28;20041;-80
2022/11/30 03:41:44;;;;;;;0.70;0.52;;;;;;;2.88;100.00;102818.34;10398439;28;20038;-80
2022/11/30 03:46:45;;;;;;;0.73;0.40;;;;;;;2.88;100.00;102822.53;10397423;28;20091;-79
2022/11/30 03:51:47;;;;;;;2.85;1.08;;;;;;;2.84;100.00;102824.81;10402169;28;20424;-80
2022/11/30 03:56:48;;;;;;;0.75;0.70;;;;;;;2.88;100.00;102826.00;10411796;28;20067;-79
2022/11/30 04:01:50;;;;;;;1.88;1.35;;;;;;;2.85;100.00;102826.63;10395896;28;20091;-80
2022/11/30 04:06:52;;;;;;;0.22;0.22;;;;;;;2.68;100.00;102834.41;10398501;28;20434;-79
2022/11/30 04:11:53;;;;;;;0.52;0.43;;;;;;;2.74;100.00;102845.13;10409017;28;20045;-80
2022/11/30 04:16:58;;;;;;;1.17;1.08;;;;;;;2.66;100.00;102848.63;10394367;28;20054;-80
2022/11/30 04:22:00;;;;;;;0.52;0.43;;;;;;;2.42;100.00;102853.31;10410901;28;20401;-80
2022/11/30 04:27:01;;;;;;;1.15;0.73;;;;;;;2.64;100.00;102852.72;10411635;28;20451;-80
2022/11/30 04:32:03;;;;;;;1.48;0.85;;;;;;;2.12;100.00;102844.69;10395265;28;20144;-80
2022/11/30 04:37:05;;;;;;;0.45;0.45;;;;;;;2.18;100.00;102844.34;10397658;28;20072;-80
2022/11/30 04:42:06;;;;;;;0.65;0.65;;;;;;;2.11;100.00;102842.91;10397411;28;20045;-80
2022/11/30 04:47:08;;;;;;;1.27;0.85;;;;;;;1.92;100.00;102832.69;10395627;28;20046;-81
2022/11/30 04:52:09;;;;;;;0.15;0.10;;;;;;;2.16;100.00;102831.50;10409260;28;20042;-81
2022/11/30 04:57:11;;;;;;;0.68;0.47;;;;;;;1.42;100.00;102814.53;10399487;28;20103;-80
2022/11/30 05:02:13;;;;;;;0.50;0.50;;;;;;;1.29;100.00;102812.47;10412469;28;20049;-80
2022/11/30 05:07:15;;;;;;;0.50;0.50;;;;;;;1.32;100.00;102827.09;10410348;28;20053;-80
2022/11/30 05:12:16;;;;;;;0.10;0.10;;;;;;;1.17;100.00;102817.28;10409793;28;20061;-80
2022/11/30 05:17:18;;;;;;;0.10;0.00;;;;;;;0.25;100.00;102820.34;10399176;28;20077;-80
2022/11/30 05:22:19;;;;;;;0.20;0.20;;;;;;;0.41;100.00;102842.13;10399191;28;20068;-80
2022/11/30 05:27:22;;;;;;;0.77;0.50;;;;;;;0.60;100.00;102845.72;10400163;28;20535;-80
2022/11/30 05:32:23;;;;;;;0.22;0.22;;;;;;;0.74;100.00;102858.84;10399357;28;20095;-80
2022/11/30 05:37:25;;;;;;;0.35;0.35;;;;;;;0.73;100.00;102863.03;10416619;28;20073;-80
2022/11/30 05:42:27;;;;;;;0.00;0.00;;;;;;;0.88;100.00;102867.81;10400978;28;20077;-79
2022/11/30 05:47:28;;;;;;;1.13;0.35;;;;;;;1.08;100.00;102882.44;10395942;28;20139;-79
2022/11/30 05:52:30;;;;;;;0.30;0.30;;;;;;;1.01;100.00;102885.09;10398072;28;20052;-80
2022/11/30 05:57:36;;;;;;;0.13;0.13;;;;;;;0.81;100.00;102891.69;10396299;28;20046;-80
2022/11/30 06:02:37;;;;;;;0.25;0.20;;;;;;;0.63;100.00;102903.47;10397004;28;20060;-78
2022/11/30 06:07:40;;;;;;;0.50;0.50;;;;;;;0.95;100.00;102906.59;10406293;28;20050;-80
2022/11/30 06:12:41;;;;;;;0.38;0.20;;;;;;;1.23;100.00;102916.88;10420582;28;20041;-80
2022/11/30 06:17:43;;;;;;;1.13;0.93;;;;;;;1.35;100.00;102929.00;10375946;28;20546;-80
2022/11/30 06:22:46;;;;;;;0.85;0.63;;;;;;;1.79;100.00;102939.94;10409240;28;20088;-80
2022/11/30 06:27:48;;;;;;;0.93;0.65;;;;;;;2.04;100.00;102948.22;10385074;28;20088;-80
2022/11/30 06:32:51;;;;;;;0.73;0.70;;;;;;;2.18;100.00;102959.69;10401230;28;20030;-81
2022/11/30 06:37:53;;;;;;;2.25;1.23;;;;;;;2.48;100.00;102970.91;10412899;28;20488;-80
2022/11/30 06:42:55;;;;;;;1.65;0.85;;;;;;;2.55;100.00;102967.28;10401274;28;20096;-80
2022/11/30 06:47:57;;;;;;;0.50;0.50;;;;;;;2.63;100.00;102988.34;10400444;28;20112;-80
2022/11/30 06:53:00;;;;;;;1.05;0.95;;;;;;;2.76;100.00;102991.25;10381498;28;20042;-80
2022/11/30 06:58:08;;;;;;;0.68;0.65;;;;;;;2.91;100.00;103003.59;10386505;28;20449;-80
2022/11/30 07:03:10;;;;;;;1.10;1.00;;;;;;;3.05;100.00;103015.94;10417460;28;20037;-80
2022/11/30 07:08:16;;;;;;;1.75;1.00;;;;;;;3.15;100.00;103015.09;10391971;28;20046;-81
2022/11/30 07:13:19;;;;;;;0.85;0.85;;;;;;;3.24;100.00;103027.78;10404993;28;20049;-81
2022/11/30 07:18:21;;;;;;;2.95;0.93;;;;;;;3.31;100.00;103036.09;10392155;28;20100;-81
2022/11/30 07:28:58;;;;;;;0.38;0.38;;;;;;;3.45;100.00;103057.75;10418647;28;20053;-80
2022/11/30 07:34:04;;;;;;;4.20;1.63;;;;;;;3.48;100.00;103067.31;10378585;28;20045;-81
2022/11/30 07:39:06;;;;;;;0.55;0.52;;;;;;;3.51;100.00;103066.69;10410731;28;20140;-80
2022/11/30 07:44:08;;;;;;;2.40;1.77;;;;;;;3.63;100.00;103075.41;10396946;28;20469;-80
2022/11/30 07:49:10;;;;;;;2.40;2.05;;;;;;;3.71;100.00;103074.44;10400838;28;20076;-80
2022/11/30 07:54:12;;;;;;;0.95;0.80;;;;;;;3.76;100.00;103083.38;10407603;28;20050;-80
2022/11/30 07:59:13;;;;;;;1.50;1.00;;;;;;;3.80;100.00;103080.38;10394013;28;20046;-80
2022/11/30 08:04:18;;;;;;;1.30;1.08;;;;;;;3.83;100.00;103089.06;10405124;28;20041;-80
2022/11/30 08:09:20;;;;;;;1.38;0.98;;;;;;;3.92;100.00;103094.94;10402658;28;20045;-80
2022/11/30 08:14:22;;;;;;;0.80;0.65;;;;;;;4.00;100.00;103101.63;10406371;28;20606;-80
2022/11/30 08:19:24;;;;;;;1.42;1.30;;;;;;;4.02;100.00;103107.75;10415264;28;20053;-81
2022/11/30 08:24:26;;;;;;;5.95;1.52;;;;;;;4.04;100.00;103108.81;10394012;28;20055;-80
2022/11/30 08:29:28;;;;;;;2.28;1.50;;;;;;;4.09;100.00;103115.19;10399432;28;20053;-81
2022/11/30 08:34:30;;;;;;;1.05;0.95;;;;;;;4.13;100.00;103114.69;10411513;28;20049;-81
2022/11/30 08:39:33;;;;;;;13.30;1.67;;;;;;;4.23;100.00;103123.16;10397128;28;20049;-81
2022/11/30 08:44:35;;;;;;;3.83;2.05;;;;;;;4.31;100.00;103129.84;10371296;28;20137;-81
2022/11/30 08:49:36;;;;;;;1.98;0.85;;;;;;;4.37;100.00;103137.13;10383292;28;20052;-80
2022/11/30 08:54:41;;;;;;;2.13;1.10;;;;;;;4.41;100.00;103142.66;10407883;28;20029;-81
2022/11/30 08:59:43;;;;;;;3.55;2.30;;;;;;;4.48;100.00;103141.50;10421429;28;20049;-81
2022/11/30 09:04:47;;;;;;;1.85;1.48;;;;;;;4.63;100.00;103144.50;10411812;28;20046;-80
2022/11/30 09:09:50;;;;;;;5.97;2.30;;;;;;;4.67;100.00;103160.97;10408032;28;20072;-81
2022/11/30 09:14:52;;;;;;;1.13;1.00;;;;;;;4.79;100.00;103158.59;10403513;28;20539;-81
2022/11/30 09:19:59;;;;;;;2.20;1.50;;;;;;;4.91;100.00;103169.84;10397150;28;20493;-80
2022/11/30 09:25:01;;;;;;;1.75;1.38;;;;;;;4.96;100.00;103168.56;10392628;28;20037;-81
2022/11/30 09:30:03;;;;;;;4.78;2.95;;;;;;;5.04;100.00;103165.00;10400504;28;20056;-81
2022/11/30 09:35:06;;;;;;;2.13;1.33;;;;;;;5.10;100.00;103171.44;10393895;28;20484;-81
2022/11/30 09:40:15;;;;;;;3.80;1.30;;;;;;;5.13;100.00;103179.34;10386523;28;20057;-80
2022/11/30 09:45:29;;;;;;;6.97;1.42;;;;;;;5.20;100.00;103179.09;10410564;28;20357;-80
2022/11/30 09:50:44;;;;;;;4.35;3.90;;;;;;;5.24;100.00;103168.38;10415866;28;20045;-81
2022/11/30 09:55:46;;;;;;;2.80;2.20;;;;;;;5.34;100.00;103163.25;10396619;28;20046;-80
2022/11/30 10:00:50;;;;;;;8.77;2.40;;;;;;;5.35;100.00;103175.28;10391486;28;20136;-81
2022/11/30 10:06:06;;;;;;;3.58;1.58;;;;;;;5.27;100.00;103166.06;10412146;28;20409;-80
2022/11/30 10:11:23;;;;;;;11.18;1.67;;;;;;;5.15;100.00;103150.59;10417674;28;20041;-80
2022/11/30 10:16:38;;;;;;;3.05;2.30;;;;;;;5.39;100.00;103146.66;10391784;28;20049;-80
2022/11/30 10:22:03;;;;;;;2.20;1.60;;;;;;;5.73;100.00;103133.19;10395945;28;20048;-80
2022/11/30 10:27:17;;;;;;;2.67;1.27;;;;;;;5.68;100.00;103112.34;10418636;28;20455;-79
2022/11/30 10:32:23;;;;;;;2.40;1.88;;;;;;;6.08;100.00;103091.69;10411107;28;20054;-80
2022/11/30 10:37:35;;;;;;;1.55;1.17;;;;;;;6.11;100.00;103032.16;10411738;28;20042;-80
2022/11/30 10:42:46;;;;;;;1.92;1.60;;;;;;;5.97;100.00;102996.13;10413863;28;20053;-80
2022/11/30 10:48:00;;;;;;;0.47;0.45;;;;;;;5.76;100.00;102961.19;10392038;28;20050;-80
2022/11/30 10:53:02;;;;;;;0.45;0.45;;;;;;;5.76;100.00;102927.94;10408856;28;20052;-82
2022/11/30 10:58:16;;;;;;;1.80;1.35;;;;;;;5.92;100.00;102892.50;10391957;28;20057;-81
2022/11/30 11:03:23;;;;;;;2.95;1.65;;;;;;;5.98;100.00;102859.75;10392483;28;20429;-80
2022/11/30 11:08:25;;;;;;;2.13;1.20;;;;;;;5.97;100.00;102847.72;10403183;28;20045;-80
2022/11/30 11:13:42;;;;;;;1.27;1.20;;;;;;;5.97;100.00;102834.00;10412917;28;20045;-82
2022/11/30 11:18:56;;;;;;;3.17;1.85;;;;;;;6.02;100.00;102815.72;10392702;28;20493;-81
2022/11/30 11:24:09;;;;;;;2.10;1.27;;;;;;;6.02;100.00;102797.81;10420401;28;20057;-81
2022/11/30 11:29:30;;;;;;;1.08;0.82;;;;;;;6.00;100.00;102780.56;10402847;28;20137;-79
2022/11/30 11:34:34;;;;;;;0.93;0.85;;;;;;;5.96;100.00;102765.69;10396623;28;20105;-80
2022/11/30 11:39:36;;;;;;;1.45;1.30;;;;;;;6.02;100.00;102738.94;10403066;28;20401;-80
2022/11/30 11:44:37;;;;;;;1.55;1.45;;;;;;;6.08;100.00;102732.50;10402625;28;20034;-80
2022/11/30 11:49:39;;;;;;;2.97;1.48;;;;;;;6.06;100.00;102718.72;10400656;28;20183;-80
2022/11/30 11:55:00;;;;;;;0.75;0.55;;;;;;;6.10;100.00;102715.59;10386264;28;20512;-80
2022/11/30 12:00:14;;;;;;;1.35;1.20;;;;;;;6.26;100.00;102718.50;10394863;28;20050;-79
2022/11/30 12:05:41;;;;;;;1.30;0.85;;;;;;;6.24;100.00;102716.63;10399137;28;20561;-80
2022/11/30 12:10:54;;;;;;;1.08;0.98;;;;;;;6.28;100.00;102711.84;10393034;28;20046;-79
2022/11/30 12:16:35;;;;;;;0.63;0.40;;;;;;;6.60;100.00;102714.91;10400018;28;20053;-79
2022/11/30 12:21:56;;;;;;;0.90;0.68;;;;;;;6.44;100.00;102707.81;10383200;28;20394;-79
2022/11/30 12:27:04;;;;;;;3.45;2.40;;;;;;;6.41;100.00;102702.47;10401307;28;20225;-80
2022/11/30 12:32:26;;;;;;;1.77;1.15;;;;;;;6.18;100.00;102711.94;10402508;28;20046;-80
2022/11/30 12:37:39;;;;;;;3.78;2.50;;;;;;;6.00;100.00;102720.03;10404676;28;20354;-79
2022/11/30 12:43:03;;;;;;;1.80;1.67;;;;;;;6.16;100.00;102741.63;10410921;28;20539;-79
2022/11/30 12:48:33;;;;;;;2.25;1.60;;;;;;;6.17;100.00;102739.22;10394373;28;20459;-80
2022/11/30 12:53:51;;;;;;;1.45;0.88;;;;;;;6.11;100.00;102750.66;10399519;28;20033;-79
2022/11/30 12:59:20;;;;;;;3.67;1.70;;;;;;;6.15;100.00;102765.44;10415131;28;20037;-79
2022/11/30 13:04:43;;;;;;;3.97;1.60;;;;;;;6.09;100.00;102770.09;10397089;28;20504;-79
2022/11/30 13:10:21;;;;;;;1.02;0.75;;;;;;;5.99;100.00;102784.81;10403586;28;20045;-80
2022/11/30 13:15:27;;;;;;;2.67;1.45;;;;;;;5.87;100.00;102786.38;10396447;28;20104;-80
2022/11/30 13:20:58;;;;;;;1.52;1.10;;;;;;;5.68;100.00;102802.91;10397508;28;20068;-79
2022/11/30 13:26:26;;;;;;;1.63;1.33;;;;;;;5.62;100.00;102812.63;10434767;28;20045;-79
2022/11/30 13:31:38;;;;;;;1.13;0.88;;;;;;;5.65;100.00;102822.25;10418337;28;20041;-79
2022/11/30 13:36:44;;;;;;;3.75;2.70;;;;;;;5.49;100.00;102823.59;10416933;28;20432;-80
2022/11/30 13:42:01;;;;;;;3.00;1.98;;;;;;;5.52;100.00;102825.50;10425389;28;20500;-80
2022/11/30 13:47:14;;;;;;;0.77;0.63;;;;;;;5.54;100.00;102831.63;10410658;28;20048;-80
2022/11/30 13:52:54;;;;;;;8.07;1.88;;;;;;;5.47;100.00;102837.03;10438196;28;20151;-79
2022/11/30 13:57:56;;;;;;;6.57;2.03;;;;;;;5.39;100.00;102827.13;10424948;28;20119;-79
2022/11/30 14:03:19;;;;;;;1.45;1.10;;;;;;;5.38;100.00;102837.19;10405723;28;20381;-80
2022/11/30 14:08:21;;;;;;;3.45;1.02;;;;;;;5.38;100.00;102837.19;10418536;28;20452;-79
2022/11/30 14:13:29;;;;;;;5.13;2.53;;;;;;;5.30;100.00;102844.28;10418554;28;20049;-80
2022/11/30 14:18:40;;;;;;;4.95;3.20;;;;;;;5.23;100.00;102844.56;10423140;28;20054;-80
2022/11/30 14:23:54;;;;;;;2.95;1.77;;;;;;;5.19;100.00;102858.78;10388526;28;20057;-80
2022/11/30 14:29:02;;;;;;;1.35;1.25;;;;;;;5.21;100.00;102857.22;10402365;28;20041;-80
2022/11/30 14:34:28;;;;;;;2.90;1.95;;;;;;;5.19;100.00;102866.44;10409920;28;20033;-80
2022/11/30 14:39:40;;;;;;;18.50;2.75;;;;;;;5.20;100.00;102878.44;10422956;28;20076;-80
2022/11/30 14:44:43;;;;;;;4.88;1.90;;;;;;;5.16;100.00;102875.53;10383003;28;20041;-80
2022/11/30 14:50:18;;;;;;;7.47;2.17;;;;;;;5.18;100.00;102873.97;10404044;28;20606;-80
2022/11/30 15:02:36;;;;;;;;;;;;;;;5.08;100.00;102897.88;10398693;28;20033;-80
2022/11/30 15:07:41;;;;;;;7.00;3.15;;;;;;;5.06;100.00;102905.44;10414208;28;20007;-80
2022/11/30 15:12:45;;;;;;;0.75;0.75;;;;;;;5.05;100.00;102911.31;10413115;28;20132;-80
2022/11/30 15:17:56;;;;;;;6.57;2.20;;;;;;;5.02;100.00;102913.63;10389748;28;20049;-80
2022/11/30 15:22:59;;;;;;;1.73;1.63;;;;;;;5.02;100.00;102913.63;10402272;28;20037;-80
2022/11/30 15:28:02;;;;;;;2.97;2.60;;;;;;;4.98;100.00;102911.59;10387377;28;20046;-82
2022/11/30 15:33:04;;;;;;;3.05;1.77;;;;;;;4.93;100.00;102913.75;10424094;28;20057;-81
2022/11/30 15:38:07;;;;;;;4.22;2.70;;;;;;;4.92;100.00;102924.75;10418080;28;20046;-80
2022/11/30 15:43:32;;;;;;;4.75;2.17;;;;;;;4.96;100.00;102928.44;10406989;28;20389;-79
2022/11/30 15:48:37;;;;;;;1.23;1.13;;;;;;;4.91;100.00;102940.84;10406415;28;20052;-80
2022/11/30 15:53:53;;;;;;;1.70;0.93;;;;;;;4.85;100.00;102950.56;10409702;28;20045;-80
2022/11/30 15:59:22;;;;;;;2.78;1.58;;;;;;;4.83;100.00;102963.97;10423602;28;20045;-80
2022/11/30 16:04:47;;;;;;;4.65;2.03;;;;;;;4.86;100.00;102987.22;10385283;28;20072;-80
2022/11/30 16:09:52;;;;;;;3.20;1.88;;;;;;;4.85;100.00;103000.75;10412883;28;20452;-80
2022/11/30 16:14:54;;;;;;;1.60;1.45;;;;;;;4.86;100.00;103002.53;10442635;28;20558;-80
2022/11/30 16:20:22;;;;;;;2.20;2.00;;;;;;;4.86;100.00;103017.88;10433434;28;20053;-79
2022/11/30 16:25:25;;;;;;;1.85;1.75;;;;;;;4.86;100.00;103023.88;10416297;28;20084;-80
2022/11/30 16:30:29;;;;;;;3.17;1.67;;;;;;;4.91;100.00;103037.03;10409553;28;20045;-80
2022/11/30 16:35:58;;;;;;;5.18;1.65;;;;;;;4.90;100.00;103046.34;10392948;28;20405;-80
2022/11/30 16:41:20;;;;;;;2.95;1.50;;;;;;;4.90;100.00;103045.44;10424277;28;20120;-80
2022/11/30 16:46:41;;;;;;;3.00;0.98;;;;;;;4.88;100.00;103052.06;10414377;28;20412;-80
2022/11/30 16:51:43;;;;;;;1.23;1.02;;;;;;;4.89;100.00;103053.88;10412765;28;20408;-80
2022/11/30 16:56:59;;;;;;;3.55;2.20;;;;;;;4.88;100.00;103062.28;10413150;28;20053;-80
2022/11/30 17:02:01;;;;;;;2.60;1.67;;;;;;;4.86;100.00;103061.28;10412736;28;20042;-80
2022/11/30 17:07:04;;;;;;;1.58;1.35;;;;;;;4.87;100.00;103073.31;10398586;28;20053;-80
2022/11/30 17:12:34;;;;;;;2.35;1.52;;;;;;;4.84;100.00;103073.91;10411972;28;20046;-81
2022/11/30 17:17:36;;;;;;;1.70;1.30;;;;;;;4.84;100.00;103085.81;10421337;28;20057;-81
2022/11/30 17:22:38;;;;;;;2.95;1.33;;;;;;;4.83;100.00;103089.13;10412156;28;20044;-80
2022/11/30 17:28:00;;;;;;;4.10;1.55;;;;;;;4.81;100.00;103075.31;10413219;28;20092;-80
2022/11/30 17:33:01;;;;;;;1.73;1.08;;;;;;;4.81;100.00;103096.66;10418053;28;20069;-80
2022/11/30 17:38:03;;;;;;;4.82;1.48;;;;;;;4.79;100.00;103089.63;10390660;28;20408;-80
2022/11/30 17:43:56;;;;;;;0.95;0.85;;;;;;;4.80;100.00;103104.19;10415627;28;20073;-80
2022/11/30 17:48:57;;;;;;;1.00;0.98;;;;;;;4.78;100.00;103110.81;10409994;28;20092;-80
2022/11/30 17:53:59;;;;;;;7.97;2.30;;;;;;;4.75;100.00;103106.34;10375313;28;20108;-80
2022/11/30 17:59:03;;;;;;;4.22;2.55;;;;;;;4.74;100.00;103110.56;10390012;28;20049;-80
2022/11/30 18:04:05;;;;;;;1.38;1.00;;;;;;;4.77;100.00;103115.03;10414582;28;20079;-80
2022/11/30 18:09:06;;;;;;;5.85;2.20;;;;;;;4.74;100.00;103115.66;10433618;28;20404;-80
2022/11/30 18:14:08;;;;;;;5.28;2.65;;;;;;;4.72;100.00;103111.19;10418541;28;20472;-80
2022/11/30 18:19:13;;;;;;;2.20;1.42;;;;;;;4.76;100.00;103108.16;10402940;28;20037;-80
2022/11/30 18:24:18;;;;;;;3.83;1.77;;;;;;;4.74;100.00;103109.66;10419620;28;20038;-81
2022/11/30 18:29:26;;;;;;;3.53;1.25;;;;;;;4.73;100.00;103107.88;10417380;28;20520;-80
2022/11/30 18:34:27;;;;;;;4.68;2.70;;;;;;;4.70;100.00;103107.59;10415142;28;20045;-80
2022/11/30 18:39:29;;;;;;;2.38;1.40;;;;;;;4.66;100.00;103111.56;10437370;28;20053;-81
2022/11/30 18:44:33;;;;;;;1.30;1.08;;;;;;;4.66;100.00;103110.66;10402630;28;20053;-80
2022/11/30 18:49:35;;;;;;;3.50;2.15;;;;;;;4.65;100.00;103114.91;10415361;28;20132;-80
2022/11/30 18:54:36;;;;;;;5.70;2.75;;;;;;;4.64;100.00;103115.66;10408823;28;20084;-80
2022/11/30 18:59:38;;;;;;;3.40;1.00;;;;;;;4.64;100.00;103122.41;10414853;28;20049;-81
2022/11/30 19:04:40;;;;;;;3.85;2.08;;;;;;;4.61;100.00;103120.50;10415332;28;20041;-80
2022/11/30 19:09:41;;;;;;;0.88;0.77;;;;;;;4.58;100.00;103117.66;10414654;28;20049;-80
2022/11/30 19:14:44;;;;;;;2.60;1.98;;;;;;;4.57;100.00;103119.34;10414425;28;20049;-80
2022/11/30 19:19:46;;;;;;;2.08;1.45;;;;;;;4.61;100.00;103128.16;10427441;28;20053;-81
2022/11/30 19:24:47;;;;;;;1.88;1.63;;;;;;;4.58;100.00;103120.22;10429893;28;20080;-80
2022/11/30 19:29:52;;;;;;;2.78;2.58;;;;;;;4.57;100.00;103121.00;10414408;28;20045;-80
2022/11/30 19:34:54;;;;;;;1.73;1.45;;;;;;;4.56;100.00;103120.09;10398092;28;20072;-80
2022/11/30 19:39:59;;;;;;;2.17;1.73;;;;;;;4.53;100.00;103124.94;10415240;28;20107;-81
2022/11/30 19:45:27;;;;;;;11.52;2.85;;;;;;;4.53;100.00;103118.94;10416585;28;20041;-81
2022/11/30 19:50:29;;;;;;;2.78;2.00;;;;;;;4.52;100.00;103122.25;10429908;28;20496;-80
2022/11/30 19:55:31;;;;;;;0.90;0.82;;;;;;;4.49;100.00;103127.09;10426535;28;20041;-80
2022/11/30 20:00:33;;;;;;;1.95;0.95;;;;;;;4.50;100.00;103116.13;10412862;28;20045;-81
2022/11/30 20:05:38;;;;;;;2.15;1.50;;;;;;;4.41;100.00;103119.66;10369439;28;20136;-80
2022/11/30 20:10:40;;;;;;;3.33;1.77;;;;;;;4.42;100.00;103118.91;10412624;28;20056;-81
2022/11/30 20:15:42;;;;;;;1.67;0.73;;;;;;;4.51;100.00;103125.56;10398369;28;20068;-81
2022/11/30 20:20:43;;;;;;;5.07;1.20;;;;;;;4.49;100.00;103132.22;10409214;28;20045;-80
2022/11/30 20:25:45;;;;;;;22.88;2.92;;;;;;;4.43;100.00;103120.69;10414712;28;20104;-80
2022/11/30 20:30:46;;;;;;;4.70;1.98;;;;;;;4.46;100.00;103127.75;10385346;28;20045;-81
2022/11/30 20:35:48;;;;;;;3.88;2.33;;;;;;;4.48;100.00;103127.84;10429218;28;20054;-81
2022/11/30 20:40:50;;;;;;;3.72;2.13;;;;;;;4.45;100.00;103134.47;10415168;28;20095;-80
2022/11/30 20:45:52;;;;;;;2.10;1.95;;;;;;;4.45;100.00;103146.38;10415302;28;20052;-80
2022/11/30 20:50:53;;;;;;;3.75;1.75;;;;;;;4.47;100.00;103151.59;10451233;28;20042;-80
2022/11/30 20:56:16;;;;;;;4.53;2.15;;;;;;;4.44;100.00;103157.31;10415600;28;20555;-80
2022/11/30 21:01:20;;;;;;;2.38;1.33;;;;;;;4.44;100.00;103157.31;10413662;28;20100;-79
2022/11/30 21:06:22;;;;;;;9.52;1.85;;;;;;;4.42;100.00;103172.53;10412464;28;20155;-79
2022/11/30 21:11:25;;;;;;;3.22;1.42;;;;;;;4.45;100.00;103166.78;10411360;28;20053;-79
2022/11/30 21:22:42;;;;;;;3.60;1.83;;;;;;;4.43;100.00;103148.75;10412770;28;20390;-81
2022/11/30 21:27:43;;;;;;;0.70;0.70;;;;;;;4.40;100.00;103143.41;10393973;28;20099;-80
2022/11/30 21:32:45;;;;;;;4.03;1.98;;;;;;;4.41;100.00;103141.72;10383595;28;20042;-81
2022/11/30 21:37:46;;;;;;;5.88;1.60;;;;;;;4.38;100.00;103144.03;10418712;28;20096;-81
2022/11/30 21:42:48;;;;;;;6.78;3.70;;;;;;;4.45;100.00;103136.16;10431283;28;20045;-80
2022/11/30 21:47:49;;;;;;;0.82;0.73;;;;;;;4.45;100.00;103142.13;10421611;28;20049;-80
2022/11/30 21:52:51;;;;;;;6.28;1.77;;;;;;;4.43;100.00;103133.44;10414841;28;20068;-80
2022/11/30 21:57:53;;;;;;;8.85;1.13;;;;;;;4.41;100.00;103129.88;10438779;28;20091;-80
2022/11/30 22:09:54;;;;;;;9.05;1.35;;;;;;;4.40;100.00;103133.19;10463225;28;20033;-79
2022/11/30 22:14:56;;;;;;;5.85;1.75;;;;;;;4.40;100.00;103117.88;10427505;28;20069;-80
2022/11/30 22:19:57;;;;;;;1.88;0.68;;;;;;;4.41;100.00;103119.66;10420652;28;20064;-80
2022/11/30 22:24:59;;;;;;;3.42;2.65;;;;;;;4.42;100.00;103121.47;10403874;28;20543;-79
2022/11/30 22:30:01;;;;;;;4.50;1.50;;;;;;;4.43;100.00;103118.13;10421406;28;20095;-79
2022/11/30 22:35:03;;;;;;;7.70;2.83;;;;;;;4.47;100.00;103123.50;10420074;28;20053;-80
2022/11/30 22:40:05;;;;;;;1.15;0.70;;;;;;;4.41;100.00;103134.06;10427397;28;20102;-79
2022/11/30 22:45:07;;;;;;;10.10;4.20;;;;;;;4.41;100.00;103139.19;10455611;28;20532;-80
2022/11/30 22:50:10;;;;;;;4.65;2.63;;;;;;;4.39;100.00;103136.50;10402798;28;20100;-79
2022/11/30 22:55:11;;;;;;;1.50;1.40;;;;;;;4.39;100.00;103139.06;10430968;28;20120;-79
2022/11/30 23:00:14;;;;;;;2.72;1.90;;;;;;;4.40;100.00;103143.41;10409073;28;20042;-80
2022/11/30 23:05:15;;;;;;;3.80;2.78;;;;;;;4.38;100.00;103150.03;10431524;28;20065;-80
2022/11/30 23:10:18;;;;;;;2.17;1.85;;;;;;;4.38;100.00;103155.13;10461364;28;20054;-79
2022/11/30 23:15:19;;;;;;;3.92;1.88;;;;;;;4.39;100.00;103156.03;10437465;28;20045;-80
2022/11/30 23:20:21;;;;;;;3.72;2.63;;;;;;;4.43;100.00;103160.63;10418586;28;20090;-79
2022/11/30 23:25:23;;;;;;;5.60;3.05;;;;;;;4.37;100.00;103157.56;10458681;28;20044;-79
2022/11/30 23:30:25;;;;;;;11.10;4.03;;;;;;;4.38;100.00;103165.34;10417027;28;20413;-79
2022/11/30 23:35:26;;;;;;;20.88;6.13;;;;;;;4.35;100.00;103177.84;10382185;28;20050;-80
2022/11/30 23:40:28;;;;;;;7.13;2.25;;;;;;;4.41;100.00;103180.00;10376338;28;20049;-80
2022/11/30 23:45:30;;;;;;;6.72;2.40;;;;;;;4.39;100.00;103185.00;10417265;28;20046;-80
2022/11/30 23:50:32;;;;;;;5.57;2.45;;;;;;;4.40;100.00;103184.25;10416206;28;20045;-79
2022/11/30 23:55:36;;;;;;;6.25;1.90;;;;;;;4.42;100.00;103192.94;10401687;28;20042;-78
